Time;durP1;ratioP1;P1;durP2;ratioP2;P2;SDS_P1;SDS_P2;PMS_P1;PMS_P2;Temp;Humidity;BMP_temperature;BMP_pressure;BME280_temperature;BME280_humidity;BME280_pressure;Samples;Min_cycle;Max_cycle;Signal;HPM_P1;HPM_P2
2021/12/11 00:01:37;;;;;;;37.58;18.95;;;-2.40;99.90;;;;;;5052838;28;20559;-75
2021/12/11 00:04:06;;;;;;;35.38;18.73;;;-2.40;99.90;;;;;;5034509;28;20056;-75
2021/12/11 00:06:36;;;;;;;37.25;19.38;;;-2.40;99.90;;;;;;5053219;28;20045;-75
2021/12/11 00:09:24;;;;;;;36.65;19.90;;;-2.50;99.90;;;;;;5050412;28;20403;-75
2021/12/11 00:11:56;;;;;;;34.88;17.15;;;-2.50;99.90;;;;;;5033732;28;20043;-75
2021/12/11 00:14:23;;;;;;;29.33;17.23;;;-2.50;99.90;;;;;;5050792;28;20179;-75
2021/12/11 00:16:50;;;;;;;35.30;18.92;;;-2.60;99.90;;;;;;5049720;28;20033;-75
2021/12/11 00:19:21;;;;;;;35.75;19.55;;;-2.60;99.90;;;;;;5033073;28;20481;-76
2021/12/11 00:21:47;;;;;;;29.27;17.60;;;-2.60;99.90;;;;;;5046307;28;20123;-75
2021/12/11 00:24:17;;;;;;;34.80;19.05;;;-2.60;99.90;;;;;;5053230;28;20439;-75
2021/12/11 00:26:46;;;;;;;37.20;18.95;;;-2.70;99.90;;;;;;5053573;28;20446;-75
2021/12/11 00:29:14;;;;;;;28.50;17.52;;;-2.70;99.90;;;;;;5041562;28;20036;-75
2021/12/11 00:31:47;;;;;;;29.80;17.35;;;-2.70;99.90;;;;;;5041701;28;20500;-76
2021/12/11 00:34:13;;;;;;;;;;;-2.70;99.90;;;;;;5053124;28;20388;-75
2021/12/11 00:36:39;;;;;;;33.22;17.60;;;-2.80;99.90;;;;;;5040610;28;19916;-75
2021/12/11 00:39:12;;;;;;;31.85;18.45;;;-2.80;99.90;;;;;;5053017;28;20033;-75
2021/12/11 00:41:39;;;;;;;33.92;18.50;;;-2.80;99.90;;;;;;5053158;28;20036;-76
2021/12/11 00:44:05;;;;;;;34.25;18.55;;;-2.80;99.90;;;;;;5052704;28;20048;-75
2021/12/11 00:46:33;;;;;;;30.50;16.80;;;-2.90;99.90;;;;;;5050187;28;20119;-75
2021/12/11 00:49:12;;;;;;;30.35;17.30;;;-2.90;99.90;;;;;;5039960;28;20041;-75
2021/12/11 00:51:37;;;;;;;31.70;17.60;;;-2.90;99.90;;;;;;5032785;28;20047;-75
2021/12/11 00:54:04;;;;;;;30.27;17.95;;;-2.90;99.90;;;;;;5032755;28;20045;-75
2021/12/11 00:56:34;;;;;;;35.08;18.30;;;-3.00;99.90;;;;;;5048435;28;20059;-75
2021/12/11 00:59:03;;;;;;;29.98;17.00;;;-3.00;99.90;;;;;;5072975;28;20114;-75
2021/12/11 01:01:34;;;;;;;31.35;18.45;;;-3.00;99.90;;;;;;5033240;28;20083;-75
2021/12/11 01:04:06;;;;;;;32.08;18.25;;;-3.00;99.90;;;;;;5047627;28;20047;-75
2021/12/11 01:06:36;;;;;;;32.60;18.33;;;-3.00;99.90;;;;;;5036791;28;20444;-75
2021/12/11 01:09:12;;;;;;;30.98;17.45;;;-3.10;99.90;;;;;;5036361;28;20475;-75
2021/12/11 01:11:54;;;;;;;30.23;17.25;;;-3.10;99.90;;;;;;5060755;28;20119;-75
2021/12/11 01:14:33;;;;;;;32.13;17.90;;;-3.10;99.90;;;;;;5055985;28;20036;-75
2021/12/11 01:17:05;;;;;;;29.17;17.95;;;-3.10;99.90;;;;;;5039533;28;20415;-75
2021/12/11 01:19:37;;;;;;;32.53;18.63;;;-3.00;99.90;;;;;;5039498;28;20036;-76
2021/12/11 01:22:11;;;;;;;32.95;18.45;;;-3.00;99.90;;;;;;5044206;28;20028;-75
2021/12/11 01:24:45;;;;;;;32.47;19.05;;;-3.00;99.90;;;;;;5037073;28;20087;-75
2021/12/11 01:27:15;;;;;;;34.30;19.02;;;-3.00;99.90;;;;;;5019695;28;20043;-75
2021/12/11 01:29:42;;;;;;;37.92;19.25;;;-3.00;99.90;;;;;;5035986;28;20033;-75
2021/12/11 01:32:09;;;;;;;33.40;19.45;;;-2.90;99.90;;;;;;5051906;28;20048;-75
2021/12/11 01:34:36;;;;;;;33.70;18.05;;;-2.90;99.90;;;;;;5056006;28;20036;-75
2021/12/11 01:37:03;;;;;;;34.22;19.60;;;-2.90;99.90;;;;;;5039132;28;20119;-76
2021/12/11 01:39:34;;;;;;;35.90;19.60;;;-2.90;99.90;;;;;;5055835;28;20076;-75
2021/12/11 01:42:06;;;;;;;38.03;21.50;;;-2.90;99.90;;;;;;5055866;28;20044;-76
2021/12/11 01:44:37;;;;;;;35.28;20.90;;;-2.80;99.90;;;;;;5055372;28;20040;-75
2021/12/11 01:47:10;;;;;;;34.75;20.58;;;-2.80;99.90;;;;;;5052490;28;20401;-75
2021/12/11 01:49:38;;;;;;;33.13;20.08;;;-2.80;99.90;;;;;;5035896;28;20040;-75
2021/12/11 01:52:29;;;;;;;32.58;19.45;;;-2.90;99.90;;;;;;5029854;28;20037;-75
2021/12/11 01:54:55;;;;;;;37.33;20.17;;;-2.90;99.90;;;;;;5035531;28;20047;-75
2021/12/11 01:57:26;;;;;;;37.58;19.98;;;-2.90;99.90;;;;;;5035861;28;20041;-75
2021/12/11 02:00:07;;;;;;;39.38;20.63;;;-3.00;99.90;;;;;;5044530;28;20039;-76
2021/12/11 02:02:42;;;;;;;34.47;19.58;;;-2.90;99.90;;;;;;5071179;28;20093;-76
2021/12/11 02:05:10;;;;;;;35.85;20.73;;;-2.90;99.90;;;;;;5065308;28;20570;-75
2021/12/11 02:07:40;;;;;;;37.22;20.10;;;-2.90;99.90;;;;;;5035731;28;20148;-76
2021/12/11 02:10:22;;;;;;;32.17;19.13;;;-3.00;99.90;;;;;;5035329;28;20044;-75
2021/12/11 02:12:49;;;;;;;36.38;20.13;;;-3.10;99.90;;;;;;5035245;28;20048;-76
2021/12/11 02:15:19;;;;;;;33.70;18.65;;;-3.10;99.90;;;;;;5042024;28;20400;-76
2021/12/11 02:17:51;;;;;;;35.05;20.98;;;-3.10;99.90;;;;;;5055449;28;20047;-76
2021/12/11 02:20:27;;;;;;;32.28;19.20;;;-3.20;99.90;;;;;;5055757;28;20033;-76
2021/12/11 02:22:52;;;;;;;33.55;19.02;;;-3.20;99.90;;;;;;5034837;28;20037;-76
2021/12/11 02:25:23;;;;;;;29.67;18.27;;;-3.20;99.90;;;;;;5035211;28;20104;-76
2021/12/11 02:27:57;;;;;;;28.98;17.88;;;-3.20;99.90;;;;;;5054244;28;20071;-76
2021/12/11 02:30:38;;;;;;;29.27;17.67;;;-3.30;99.90;;;;;;5062518;28;20056;-76
2021/12/11 02:33:30;;;;;;;31.73;18.08;;;-3.30;99.90;;;;;;5054615;28;20119;-76
2021/12/11 02:36:10;;;;;;;33.80;17.42;;;-3.40;99.90;;;;;;5044421;28;20055;-76
2021/12/11 02:39:07;;;;;;;38.70;19.50;;;-3.40;99.90;;;;;;5054707;28;20467;-76
2021/12/11 02:41:39;;;;;;;33.80;18.85;;;-3.40;99.90;;;;;;5051543;28;20501;-76
2021/12/11 02:44:33;;;;;;;30.67;17.70;;;-3.40;99.90;;;;;;5034536;28;20037;-76
2021/12/11 02:47:30;;;;;;;38.45;20.63;;;-3.40;99.90;;;;;;5056031;28;20040;-76
2021/12/11 02:50:19;;;;;;;40.90;20.90;;;-3.50;99.90;;;;;;5053598;28;20048;-76
2021/12/11 02:52:54;;;;;;;40.10;21.20;;;-3.50;99.90;;;;;;5024636;28;20045;-76
2021/12/11 02:55:37;;;;;;;38.10;21.63;;;-3.50;99.90;;;;;;5037829;28;20036;-76
2021/12/11 02:58:14;;;;;;;33.67;19.58;;;-3.50;99.90;;;;;;5052037;28;20029;-76
2021/12/11 03:00:47;;;;;;;34.17;19.33;;;-3.50;99.90;;;;;;5036429;28;20513;-75
2021/12/11 03:03:16;;;;;;;30.05;19.38;;;-3.50;99.90;;;;;;5037482;28;20046;-76
2021/12/11 03:05:59;;;;;;;35.85;20.63;;;-3.50;99.90;;;;;;5054435;28;20492;-75
2021/12/11 03:08:25;;;;;;;34.05;20.33;;;-3.50;99.90;;;;;;5053846;28;20581;-75
2021/12/11 03:10:54;;;;;;;36.40;21.25;;;-3.60;99.90;;;;;;5054185;28;20068;-76
2021/12/11 03:13:20;;;;;;;39.50;22.35;;;-3.50;99.90;;;;;;5050174;28;20068;-76
2021/12/11 03:15:46;;;;;;;45.58;23.75;;;-3.50;99.90;;;;;;5045317;28;20032;-76
2021/12/11 03:18:13;;;;;;;39.85;21.45;;;-3.40;99.90;;;;;;5053810;28;20044;-76
2021/12/11 03:20:41;;;;;;;40.40;21.75;;;-3.40;99.90;;;;;;5050895;28;20515;-76
2021/12/11 03:23:07;;;;;;;41.03;23.92;;;-3.50;99.90;;;;;;5043310;28;20558;-76
2021/12/11 03:25:34;;;;;;;35.40;21.40;;;-3.50;99.90;;;;;;5036936;28;20040;-76
2021/12/11 03:28:02;;;;;;;40.78;22.33;;;-3.60;99.90;;;;;;5053951;28;20044;-76
2021/12/11 03:30:34;;;;;;;45.85;23.35;;;-3.60;99.90;;;;;;5050236;28;20041;-76
2021/12/11 03:33:15;;;;;;;50.88;24.88;;;-3.50;99.90;;;;;;5056425;28;20040;-76
2021/12/11 03:35:42;;;;;;;41.42;23.38;;;-3.40;99.90;;;;;;5017704;28;20083;-76
2021/12/11 03:38:09;;;;;;;46.60;25.02;;;-3.30;99.90;;;;;;5043801;28;20040;-76
2021/12/11 03:40:35;;;;;;;40.42;22.83;;;-3.30;99.90;;;;;;5053437;28;20463;-76
2021/12/11 03:43:04;;;;;;;41.08;22.75;;;-3.30;99.90;;;;;;5053473;28;20040;-76
2021/12/11 03:45:33;;;;;;;39.78;23.08;;;-3.40;99.90;;;;;;5053564;28;20052;-76
2021/12/11 03:48:14;;;;;;;42.40;23.15;;;-3.50;99.90;;;;;;5050447;28;20040;-76
2021/12/11 03:50:41;;;;;;;38.17;22.08;;;-3.50;99.90;;;;;;5010145;28;20397;-76
2021/12/11 03:53:08;;;;;;;37.60;23.13;;;-3.60;99.90;;;;;;5033332;28;20041;-76
2021/12/11 03:55:39;;;;;;;41.42;24.35;;;-3.60;99.90;;;;;;5022875;28;20082;-76
2021/12/11 03:58:07;;;;;;;40.25;22.65;;;-3.60;99.90;;;;;;5036587;28;20293;-76
2021/12/11 04:00:38;;;;;;;37.83;21.98;;;-3.70;99.90;;;;;;5036982;28;20036;-76
2021/12/11 04:03:06;;;;;;;38.73;22.70;;;-3.70;99.90;;;;;;5053308;28;20508;-76
2021/12/11 04:05:36;;;;;;;36.28;20.42;;;-3.70;99.90;;;;;;5050221;28;20098;-76
2021/12/11 04:08:04;;;;;;;37.22;21.42;;;-3.70;99.90;;;;;;5017058;28;20037;-76
2021/12/11 04:10:29;;;;;;;35.72;21.30;;;-3.70;99.90;;;;;;5026796;28;20412;-76
2021/12/11 04:12:59;;;;;;;40.08;22.65;;;-3.80;99.90;;;;;;5049974;28;20037;-76
2021/12/11 04:15:25;;;;;;;36.60;22.55;;;-3.80;99.90;;;;;;5033723;28;20534;-76
2021/12/11 04:17:51;;;;;;;38.92;23.35;;;-3.90;99.90;;;;;;5033733;28;20073;-76
2021/12/11 04:20:20;;;;;;;43.65;25.17;;;-3.80;99.90;;;;;;5042895;28;20032;-76
2021/12/11 04:22:46;;;;;;;41.92;24.27;;;-3.80;99.90;;;;;;5036532;28;20400;-75
2021/12/11 04:25:14;;;;;;;41.70;25.13;;;-3.80;99.90;;;;;;5052988;28;20046;-76
2021/12/11 04:27:40;;;;;;;36.38;22.85;;;-3.80;99.90;;;;;;5050348;28;20071;-76
2021/12/11 04:30:09;;;;;;;43.95;25.35;;;-3.80;99.90;;;;;;5016857;28;20087;-76
2021/12/11 04:32:36;;;;;;;49.47;26.63;;;-3.80;99.90;;;;;;5016647;28;20045;-76
2021/12/11 04:35:05;;;;;;;49.60;27.38;;;-3.70;99.90;;;;;;5043864;28;20068;-76
2021/12/11 04:37:31;;;;;;;53.00;27.92;;;-3.60;99.90;;;;;;5036940;28;20044;-76
2021/12/11 04:40:13;;;;;;;57.03;31.50;;;-3.40;99.90;;;;;;5056415;28;20036;-76
2021/12/11 04:42:52;;;;;;;62.25;33.00;;;-3.30;99.90;;;;;;5063284;28;20031;-76
2021/12/11 04:45:29;;;;;;;59.97;31.67;;;-3.10;99.90;;;;;;5076993;28;20040;-76
2021/12/11 04:48:11;;;;;;;61.17;32.80;;;-3.00;99.90;;;;;;5077138;28;20522;-79
2021/12/11 04:51:04;;;;;;;60.30;31.90;;;-3.00;99.90;;;;;;5068780;28;20032;-76
2021/12/11 04:56:47;;;;;;;55.13;30.30;;;-3.00;99.90;;;;;;5056811;28;20055;-76
2021/12/11 05:10:26;;;;;;;46.70;25.92;;;-3.40;99.90;;;;;;5003217;28;20041;-76
2021/12/11 05:12:55;;;;;;;41.63;24.15;;;-3.50;99.90;;;;;;5039479;28;20485;-76
2021/12/11 05:15:24;;;;;;;44.20;25.23;;;-3.60;99.90;;;;;;5056777;28;20059;-76
2021/12/11 05:17:50;;;;;;;41.28;23.42;;;-3.60;99.90;;;;;;5056304;28;20090;-76
2021/12/11 05:20:19;;;;;;;41.38;23.33;;;-3.60;99.90;;;;;;5056001;28;20068;-76
2021/12/11 05:22:45;;;;;;;42.15;23.33;;;-3.70;99.90;;;;;;5055960;28;20076;-76
2021/12/11 05:25:12;;;;;;;47.00;24.55;;;-3.70;99.90;;;;;;5048968;28;20131;-76
2021/12/11 05:27:39;;;;;;;44.72;25.00;;;-3.70;99.90;;;;;;5076084;28;20051;-76
2021/12/11 05:30:09;;;;;;;46.90;25.60;;;-3.70;99.90;;;;;;5076020;28;20040;-76
2021/12/11 05:32:35;;;;;;;39.25;23.73;;;-3.70;99.90;;;;;;5060054;28;20036;-76
2021/12/11 05:35:01;;;;;;;47.38;23.80;;;-3.70;99.90;;;;;;5039259;28;20033;-75
2021/12/11 05:37:26;;;;;;;40.45;23.25;;;-3.70;99.90;;;;;;5072586;28;20377;-76
2021/12/11 05:39:52;;;;;;;44.92;24.83;;;-3.70;99.90;;;;;;5056224;28;20043;-76
2021/12/11 05:42:18;;;;;;;48.08;24.27;;;-3.80;99.90;;;;;;5055849;28;20044;-75
2021/12/11 05:44:44;;;;;;;45.38;25.88;;;-3.80;99.90;;;;;;5039268;28;20127;-76
2021/12/11 05:47:10;;;;;;;46.95;24.85;;;-3.80;99.90;;;;;;5056025;28;20385;-76
2021/12/11 05:49:36;;;;;;;48.75;26.02;;;-3.80;99.90;;;;;;5051945;28;20334;-76
2021/12/11 05:52:06;;;;;;;51.08;27.33;;;-3.80;99.90;;;;;;5036002;28;20041;-76
2021/12/11 05:54:33;;;;;;;50.67;27.13;;;-3.70;99.90;;;;;;5046783;28;20501;-76
2021/12/11 05:57:06;;;;;;;48.63;26.35;;;-3.70;99.90;;;;;;5052227;28;20033;-76
2021/12/11 05:59:31;;;;;;;;;;;-3.70;99.90;;;;;;5035739;28;20512;-76
2021/12/11 06:02:03;;;;;;;42.38;23.17;;;-3.80;99.90;;;;;;5035841;28;19917;-76
2021/12/11 06:04:33;;;;;;;41.67;24.83;;;-3.80;99.90;;;;;;5047374;28;20530;-76
2021/12/11 06:06:59;;;;;;;44.53;24.67;;;-3.80;99.90;;;;;;5055372;28;20051;-76
2021/12/11 06:09:25;;;;;;;44.97;25.05;;;-3.80;99.90;;;;;;5052780;28;20079;-76
2021/12/11 06:11:56;;;;;;;53.20;27.83;;;-3.90;99.90;;;;;;5035291;28;20045;-76
2021/12/11 06:14:22;;;;;;;45.85;25.75;;;-3.90;99.90;;;;;;5034837;28;20041;-76
2021/12/11 06:16:51;;;;;;;50.38;25.98;;;-3.80;99.90;;;;;;5035219;28;20041;-76
2021/12/11 06:19:20;;;;;;;46.63;26.27;;;-3.90;99.90;;;;;;5053756;28;20391;-76
2021/12/11 06:21:48;;;;;;;54.38;28.83;;;-3.90;99.90;;;;;;5054984;28;20044;-76
2021/12/11 06:24:14;;;;;;;59.97;30.67;;;-3.80;99.90;;;;;;5051107;28;20041;-76
2021/12/11 06:26:40;;;;;;;64.72;32.90;;;-3.70;99.90;;;;;;5035204;28;20041;-76
2021/12/11 06:29:05;;;;;;;63.45;32.95;;;-3.60;99.90;;;;;;5053029;28;20514;-76
2021/12/11 06:31:31;;;;;;;63.08;33.08;;;-3.50;99.90;;;;;;5072587;28;20047;-75
2021/12/11 06:33:57;;;;;;;75.57;35.25;;;-3.40;99.90;;;;;;5054576;28;20037;-75
2021/12/11 06:36:24;;;;;;;58.53;30.48;;;-3.40;99.90;;;;;;5062265;28;20047;-76
2021/12/11 06:38:54;;;;;;;59.13;30.48;;;-3.40;99.90;;;;;;5056413;28;20115;-76
2021/12/11 06:41:25;;;;;;;60.97;30.60;;;-3.30;99.90;;;;;;5054981;28;20411;-76
2021/12/11 06:43:51;;;;;;;60.65;29.70;;;-3.20;99.90;;;;;;5042958;28;20070;-76
2021/12/11 06:46:17;;;;;;;59.40;31.27;;;-3.10;99.90;;;;;;5048199;28;20042;-76
2021/12/11 06:48:43;;;;;;;69.70;38.55;;;-3.10;99.90;;;;;;5050673;28;20033;-76
2021/12/11 06:51:09;;;;;;;60.33;33.15;;;-3.00;99.90;;;;;;5065177;28;20039;-76
2021/12/11 06:53:40;;;;;;;100.80;61.08;;;-3.00;99.90;;;;;;5074223;28;20119;-76
2021/12/11 06:56:09;;;;;;;72.95;37.80;;;-3.00;99.90;;;;;;5074483;28;20492;-76
2021/12/11 06:58:35;;;;;;;77.95;41.05;;;-2.90;99.90;;;;;;5054089;28;20579;-76
2021/12/11 07:01:02;;;;;;;73.45;44.97;;;-2.90;99.90;;;;;;5073759;28;20123;-76
2021/12/11 07:03:28;;;;;;;72.60;39.40;;;-2.90;99.90;;;;;;5074003;28;20082;-76
2021/12/11 07:05:53;;;;;;;68.28;35.25;;;-3.00;99.90;;;;;;5056558;28;20102;-76
2021/12/11 07:08:19;;;;;;;60.53;32.55;;;-3.00;99.90;;;;;;5034205;28;20091;-76
2021/12/11 07:10:46;;;;;;;66.47;33.88;;;-3.10;99.90;;;;;;5034242;28;20041;-76
2021/12/11 07:13:13;;;;;;;65.85;34.53;;;-3.10;99.90;;;;;;5041354;28;20036;-76
2021/12/11 07:15:40;;;;;;;61.67;33.67;;;-3.10;99.90;;;;;;5050857;28;20045;-76
2021/12/11 07:18:05;;;;;;;63.08;33.78;;;-3.00;99.90;;;;;;5017654;28;20083;-76
2021/12/11 07:20:31;;;;;;;57.72;32.40;;;-3.00;99.90;;;;;;5017652;28;20033;-76
2021/12/11 07:22:58;;;;;;;56.00;30.92;;;-3.10;99.90;;;;;;5017601;28;20091;-76
2021/12/11 07:25:40;;;;;;;55.70;30.50;;;-3.10;99.90;;;;;;5054109;28;20115;-76
2021/12/11 07:28:08;;;;;;;56.45;31.40;;;-3.20;99.90;;;;;;5050527;28;20056;-79
2021/12/11 07:30:35;;;;;;;48.33;28.65;;;-3.30;99.90;;;;;;5027186;28;20052;-76
2021/12/11 07:33:04;;;;;;;46.70;27.33;;;-3.40;99.90;;;;;;5053668;28;20044;-76
2021/12/11 07:35:32;;;;;;;47.15;28.75;;;-3.40;99.90;;;;;;5054057;28;20475;-76
2021/12/11 07:37:59;;;;;;;55.20;31.08;;;-3.50;99.90;;;;;;5037820;28;20041;-76
2021/12/11 07:40:28;;;;;;;49.90;28.52;;;-3.50;99.90;;;;;;5063358;28;20071;-76
2021/12/11 07:42:54;;;;;;;50.50;29.85;;;-3.50;99.90;;;;;;5039557;28;20036;-76
2021/12/11 07:45:21;;;;;;;48.47;27.83;;;-3.60;99.90;;;;;;5073704;28;20411;-76
2021/12/11 07:47:46;;;;;;;46.00;28.77;;;-3.60;99.90;;;;;;5073938;28;20514;-76
2021/12/11 07:50:12;;;;;;;48.22;28.65;;;-3.70;99.90;;;;;;5065838;28;20448;-77
2021/12/11 07:52:39;;;;;;;47.78;27.95;;;-3.70;99.90;;;;;;5073432;28;20113;-73
2021/12/11 07:55:05;;;;;;;46.55;26.38;;;-3.70;99.90;;;;;;5073636;28;20040;-76
2021/12/11 07:57:31;;;;;;;43.97;25.80;;;-3.70;99.90;;;;;;5026755;28;20047;-76
2021/12/11 07:59:56;;;;;;;42.95;27.15;;;-3.80;99.90;;;;;;5035049;28;20036;-76
2021/12/11 08:02:22;;;;;;;50.03;28.15;;;-3.80;99.90;;;;;;5045060;28;20047;-76
2021/12/11 08:04:48;;;;;;;48.60;27.88;;;-3.80;99.90;;;;;;5051661;28;20044;-76
2021/12/11 08:07:14;;;;;;;47.13;26.50;;;-3.70;99.90;;;;;;5049831;28;20083;-76
2021/12/11 08:09:39;;;;;;;54.80;28.77;;;-3.70;99.90;;;;;;5032619;28;20069;-76
2021/12/11 08:12:06;;;;;;;50.47;28.38;;;-3.60;99.90;;;;;;5023530;28;20040;-76
2021/12/11 08:14:32;;;;;;;50.15;28.90;;;-3.60;99.90;;;;;;5077284;28;20499;-76
2021/12/11 08:16:59;;;;;;;49.47;27.20;;;-3.50;99.90;;;;;;5077445;28;20043;-76
2021/12/11 08:19:27;;;;;;;53.15;28.75;;;-3.60;99.90;;;;;;5077320;28;20051;-76
2021/12/11 08:21:55;;;;;;;48.22;28.20;;;-3.60;99.90;;;;;;5076639;28;20115;-76
2021/12/11 08:24:23;;;;;;;54.92;28.85;;;-3.50;99.90;;;;;;5057096;28;20075;-76
2021/12/11 08:26:51;;;;;;;47.70;28.02;;;-3.50;99.90;;;;;;5057175;28;20052;-76
2021/12/11 08:29:18;;;;;;;45.22;28.13;;;-3.50;99.90;;;;;;5057161;28;20040;-76
2021/12/11 08:31:48;;;;;;;47.10;29.27;;;-3.50;99.90;;;;;;5057404;28;20412;-76
2021/12/11 08:34:13;;;;;;;50.45;29.50;;;-3.50;99.90;;;;;;5039399;28;20040;-76
2021/12/11 08:36:41;;;;;;;48.60;28.45;;;-3.50;99.90;;;;;;5042994;28;20521;-75
2021/12/11 08:39:10;;;;;;;50.83;28.20;;;-3.40;99.90;;;;;;5059106;28;20033;-75
2021/12/11 08:41:37;;;;;;;54.80;29.40;;;-3.40;99.90;;;;;;5061352;28;20055;-76
2021/12/11 08:44:09;;;;;;;60.08;29.17;;;-3.40;99.90;;;;;;5055939;28;20088;-76
2021/12/11 08:46:41;;;;;;;48.67;29.73;;;-3.30;99.90;;;;;;5056293;28;20404;-78
2021/12/11 08:49:10;;;;;;;58.35;31.08;;;-3.30;99.90;;;;;;5036326;28;20099;-76
2021/12/11 08:51:54;;;;;;;60.83;31.63;;;-3.20;99.90;;;;;;5039646;28;20040;-79
2021/12/11 08:54:21;;;;;;;62.45;34.05;;;-3.20;99.90;;;;;;5056593;28;20097;-75
2021/12/11 08:56:47;;;;;;;61.75;34.15;;;-3.10;99.90;;;;;;5053168;28;20041;-74
2021/12/11 08:59:16;;;;;;;65.10;34.00;;;-3.10;99.90;;;;;;5036707;28;20045;-75
2021/12/11 09:02:02;;;;;;;68.95;37.80;;;-3.00;99.90;;;;;;5023961;28;20373;-75
2021/12/11 09:04:43;;;;;;;62.30;34.67;;;-2.90;99.90;;;;;;5056394;28;20496;-75
2021/12/11 09:07:21;;;;;;;69.45;36.00;;;-2.90;99.90;;;;;;5053026;28;20126;-76
2021/12/11 09:09:59;;;;;;;79.88;39.13;;;-2.80;99.90;;;;;;5060054;28;20119;-75
2021/12/11 09:12:31;;;;;;;85.50;41.55;;;-2.70;99.90;;;;;;5061564;28;20496;-77
2021/12/11 09:15:08;;;;;;;88.60;42.30;;;-2.70;99.90;;;;;;5056517;28;20040;-77
2021/12/11 09:17:43;;;;;;;81.80;41.10;;;-2.50;99.90;;;;;;5053402;28;20044;-81
2021/12/11 09:20:24;;;;;;;87.85;43.35;;;-2.40;99.90;;;;;;5059863;28;20032;-76
2021/12/11 09:23:01;;;;;;;94.60;46.22;;;-2.40;99.90;;;;;;5055733;28;20048;-77
2021/12/11 09:25:35;;;;;;;94.13;44.92;;;-2.30;99.90;;;;;;5036030;28;20127;-78
2021/12/11 09:28:15;;;;;;;88.10;46.20;;;-2.20;99.90;;;;;;5019741;28;20045;-77
2021/12/11 09:30:44;;;;;;;95.88;45.58;;;-2.20;99.90;;;;;;5056352;28;20504;-76
2021/12/11 09:33:13;;;;;;;95.68;47.53;;;-2.10;99.90;;;;;;5055770;28;20532;-76
2021/12/11 09:35:50;;;;;;;92.60;46.25;;;-2.00;99.90;;;;;;5055957;28;20036;-77
2021/12/11 09:38:26;;;;;;;98.07;47.67;;;-1.90;99.90;;;;;;5056109;28;20086;-76
2021/12/11 09:40:53;;;;;;;98.05;48.55;;;-1.70;99.90;;;;;;5039766;28;20447;-77
2021/12/11 09:43:52;;;;;;;105.25;51.58;;;-1.60;99.90;;;;;;5035001;28;20085;-76
2021/12/11 09:46:25;;;;;;;102.55;48.22;;;-1.50;99.90;;;;;;5070943;28;20147;-77
2021/12/11 09:48:51;;;;;;;;;;;-1.40;99.90;;;;;;5055683;28;20124;-77
2021/12/11 09:51:22;;;;;;;97.65;46.80;;;-1.30;99.90;;;;;;5056306;28;19917;-77
2021/12/11 09:53:55;;;;;;;101.43;49.63;;;-1.20;99.90;;;;;;5055551;28;20048;-76
2021/12/11 09:56:30;;;;;;;103.07;51.70;;;-1.10;99.90;;;;;;5052652;28;20093;-76
2021/12/11 09:58:59;;;;;;;104.88;51.17;;;-1.10;99.90;;;;;;5018876;28;20044;-76
2021/12/11 10:01:29;;;;;;;108.60;51.20;;;-0.90;99.90;;;;;;5032993;28;20029;-76
2021/12/11 10:04:05;;;;;;;117.57;53.63;;;-0.90;99.90;;;;;;5038407;28;20036;-77
2021/12/11 10:09:35;;;;;;;108.63;53.05;;;-0.80;99.90;;;;;;5038280;28;20043;-76
2021/12/11 10:12:12;;;;;;;122.43;54.83;;;-0.70;99.90;;;;;;5075283;28;20040;-75
2021/12/11 10:14:48;;;;;;;113.13;55.15;;;-0.70;99.90;;;;;;5057682;28;20142;-75
2021/12/11 10:17:20;;;;;;;117.35;54.90;;;-0.60;99.90;;;;;;5037721;28;20119;-76
2021/12/11 10:19:49;;;;;;;116.95;55.97;;;-0.60;99.90;;;;;;5035200;28;20063;-75
2021/12/11 10:22:17;;;;;;;114.28;55.63;;;-0.50;99.90;;;;;;5018936;28;20037;-75
2021/12/11 10:24:44;;;;;;;116.40;54.95;;;-0.50;99.90;;;;;;5018498;28;20041;-76
2021/12/11 10:27:14;;;;;;;121.95;56.55;;;-0.40;99.90;;;;;;5052821;28;20051;-75
2021/12/11 10:29:41;;;;;;;122.38;55.97;;;-0.30;99.90;;;;;;5049863;28;20059;-75
2021/12/11 10:32:14;;;;;;;123.78;55.17;;;-0.30;99.90;;;;;;5055006;28;21420;-75
2021/12/11 10:34:45;;;;;;;135.48;57.78;;;-0.20;99.90;;;;;;5053924;28;20501;-76
2021/12/11 10:37:19;;;;;;;125.32;57.50;;;-0.10;99.90;;;;;;5050340;28;20052;-76
2021/12/11 10:39:50;;;;;;;119.85;58.08;;;-0.10;99.90;;;;;;5049797;28;20044;-76
2021/12/11 10:42:16;;;;;;;122.30;56.30;;;0.00;99.90;;;;;;5074690;28;20040;-76
2021/12/11 10:44:47;;;;;;;123.05;57.63;;;0.00;99.90;;;;;;5060773;28;20086;-76
2021/12/11 10:47:26;;;;;;;113.68;57.50;;;0.10;99.90;;;;;;5074709;28;20032;-76
2021/12/11 10:49:52;;;;;;;123.45;56.72;;;0.10;99.90;;;;;;5064253;28;20440;-77
2021/12/11 10:52:22;;;;;;;122.53;57.70;;;0.20;99.90;;;;;;5034729;28;20036;-76
2021/12/11 10:54:49;;;;;;;138.43;60.15;;;0.20;99.90;;;;;;5064249;28;20097;-76
2021/12/11 10:57:17;;;;;;;126.10;57.28;;;0.30;99.90;;;;;;5051393;28;20071;-77
2021/12/11 10:59:46;;;;;;;129.38;58.90;;;0.40;99.90;;;;;;5051360;28;20055;-77
2021/12/11 11:02:15;;;;;;;134.68;59.45;;;0.40;99.90;;;;;;5034572;28;20476;-77
2021/12/11 11:04:57;;;;;;;135.60;59.45;;;0.50;99.90;;;;;;5050359;28;20048;-76
2021/12/11 11:07:24;;;;;;;127.18;59.22;;;0.60;99.90;;;;;;5054033;28;20044;-76
2021/12/11 11:09:51;;;;;;;130.75;61.10;;;0.70;99.90;;;;;;5037559;28;20083;-76
2021/12/11 11:12:20;;;;;;;143.30;60.97;;;0.80;99.90;;;;;;5054447;28;20440;-76
2021/12/11 11:14:49;;;;;;;148.10;60.58;;;0.90;99.90;;;;;;5050232;28;20587;-76
2021/12/11 11:17:19;;;;;;;143.10;60.05;;;1.10;99.90;;;;;;5017597;28;20033;-76
2021/12/11 11:19:46;;;;;;;150.13;63.28;;;1.70;99.90;;;;;;5034067;28;20584;-77
2021/12/11 11:22:21;;;;;;;162.48;63.65;;;2.40;99.90;;;;;;5046779;28;20052;-77
2021/12/11 11:24:53;;;;;;;146.13;59.38;;;3.00;99.90;;;;;;5050326;28;20048;-77
2021/12/11 11:27:19;;;;;;;140.20;53.75;;;3.70;99.90;;;;;;5019565;28;20072;-79
2021/12/11 11:29:47;;;;;;;145.25;51.45;;;4.40;99.90;;;;;;5035612;28;20037;-78
2021/12/11 11:32:18;;;;;;;111.80;48.53;;;5.10;99.90;;;;;;5034229;28;20120;-78
2021/12/11 11:34:44;;;;;;;94.72;44.25;;;5.90;99.90;;;;;;5033936;28;20053;-77
2021/12/11 11:37:15;;;;;;;82.60;44.55;;;6.50;99.90;;;;;;5031869;28;20123;-77
2021/12/11 11:39:41;;;;;;;78.45;46.88;;;7.10;99.90;;;;;;5054079;28;20041;-78
2021/12/11 11:42:12;;;;;;;83.45;51.95;;;7.60;99.90;;;;;;5055383;28;20028;-77
2021/12/11 11:44:41;;;;;;;84.85;48.15;;;8.00;99.90;;;;;;5052750;28;20106;-78
2021/12/11 11:47:07;;;;;;;62.60;41.05;;;8.30;99.90;;;;;;5053957;28;20510;-79
2021/12/11 11:49:34;;;;;;;47.22;32.50;;;8.50;99.90;;;;;;5049941;28;20052;-77
2021/12/11 11:52:07;;;;;;;46.95;31.17;;;8.70;99.90;;;;;;5029184;28;20041;-77
2021/12/11 11:54:33;;;;;;;47.47;29.48;;;9.00;99.90;;;;;;5045278;28;20036;-78
2021/12/11 11:57:19;;;;;;;47.10;29.67;;;9.40;99.90;;;;;;5051169;28;20060;-77
2021/12/11 11:59:45;;;;;;;42.92;26.88;;;9.60;99.90;;;;;;5046627;28;20041;-78
2021/12/11 12:02:17;;;;;;;42.22;26.75;;;9.60;99.90;;;;;;5053303;28;20044;-77
2021/12/11 12:04:46;;;;;;;37.60;25.70;;;9.00;99.90;;;;;;5036877;28;20519;-79
2021/12/11 12:07:13;;;;;;;36.40;26.25;;;8.10;99.90;;;;;;5047658;28;20063;-80
2021/12/11 12:09:44;;;;;;;37.38;25.08;;;7.50;99.90;;;;;;5073564;28;20036;-80
2021/12/11 12:12:12;;;;;;;38.78;25.90;;;7.30;99.90;;;;;;5057158;28;20134;-80
2021/12/11 12:14:39;;;;;;;39.47;26.75;;;7.50;99.90;;;;;;5049474;28;20036;-79
2021/12/11 12:17:06;;;;;;;35.40;25.70;;;7.70;99.90;;;;;;5053245;28;20430;-78
2021/12/11 12:19:32;;;;;;;36.92;25.75;;;7.90;99.90;;;;;;5053634;28;20037;-80
2021/12/11 12:22:02;;;;;;;38.35;24.83;;;8.00;99.90;;;;;;5063099;28;20073;-79
2021/12/11 12:24:31;;;;;;;35.60;24.83;;;8.30;99.90;;;;;;5073196;28;20071;-79
2021/12/11 12:27:00;;;;;;;35.00;24.58;;;8.60;99.90;;;;;;5056745;28;20500;-79
2021/12/11 12:29:27;;;;;;;44.38;25.75;;;8.90;99.90;;;;;;5054944;28;20112;-79
2021/12/11 12:32:18;;;;;;;37.42;25.02;;;9.20;99.90;;;;;;5033020;28;20128;-80
2021/12/11 12:34:45;;;;;;;37.30;24.95;;;9.40;99.90;;;;;;5029191;28;20088;-80
2021/12/11 12:37:11;;;;;;;31.70;23.17;;;9.80;99.90;;;;;;5037507;28;20078;-80
2021/12/11 12:39:43;;;;;;;33.30;23.42;;;10.10;99.90;;;;;;5036864;28;20037;-80
2021/12/11 12:42:22;;;;;;;32.80;23.40;;;10.10;99.90;;;;;;5054008;28;20051;-79
2021/12/11 12:45:02;;;;;;;31.77;22.52;;;10.00;99.90;;;;;;5055432;28;20105;-80
2021/12/11 12:47:34;;;;;;;35.33;23.83;;;9.90;99.90;;;;;;5074101;28;20040;-80
2021/12/11 12:50:03;;;;;;;35.00;22.98;;;9.60;99.90;;;;;;5057153;28;20024;-80
2021/12/11 12:52:33;;;;;;;29.42;23.08;;;9.20;99.90;;;;;;5074518;28;20130;-80
2021/12/11 12:55:05;;;;;;;34.50;23.90;;;8.70;99.90;;;;;;5053837;28;20045;-80
2021/12/11 12:57:35;;;;;;;31.10;24.27;;;8.40;99.90;;;;;;5037494;28;20078;-80
2021/12/11 13:00:24;;;;;;;35.72;24.25;;;7.80;99.90;;;;;;5056513;28;20037;-80
2021/12/11 13:02:54;;;;;;;33.60;24.48;;;7.20;99.90;;;;;;5066468;28;20508;-79